createdAt,value
2018-12-22T00:01:19.384Z,45.92
2018-12-22T00:03:46.973Z,45.32
2018-12-22T00:06:14.477Z,45.05
2018-12-22T00:08:41.987Z,45.50
2018-12-22T00:11:09.440Z,45.38
2018-12-22T00:13:37.082Z,45.17
2018-12-22T00:16:05.152Z,45.30
2018-12-22T00:18:32.685Z,45.00
2018-12-22T00:21:00.457Z,45.11
2018-12-22T00:23:30.925Z,44.95
2018-12-22T00:25:59.488Z,45.40
2018-12-22T00:28:27.038Z,44.95
2018-12-22T00:30:54.477Z,44.96
2018-12-22T00:33:21.950Z,45.34
2018-12-22T00:35:49.414Z,45.04
2018-12-22T00:38:16.980Z,45.00
2018-12-22T00:40:44.563Z,45.06
2018-12-22T00:43:12.019Z,45.40
2018-12-22T00:45:39.911Z,44.85
2018-12-22T00:48:07.501Z,45.21
2018-12-22T00:50:43.813Z,44.96
2018-12-22T00:53:11.241Z,45.03
2018-12-22T00:55:39.486Z,44.93
2018-12-22T00:58:06.949Z,44.86
2018-12-22T01:00:34.395Z,44.87
2018-12-22T01:03:01.886Z,45.08
2018-12-22T01:05:29.426Z,45.29
2018-12-22T01:07:56.931Z,45.81
2018-12-22T01:10:24.353Z,44.99
2018-12-22T01:12:51.799Z,44.96
2018-12-22T01:15:19.243Z,45.35
2018-12-22T01:17:46.676Z,45.12
2018-12-22T01:20:14.094Z,45.21
2018-12-22T01:22:41.539Z,45.39
2018-12-22T01:25:08.985Z,45.01
2018-12-22T01:27:36.424Z,44.87
2018-12-22T01:30:04.017Z,44.85
2018-12-22T01:32:31.422Z,45.29
2018-12-22T01:35:09.736Z,44.75
2018-12-22T01:37:37.182Z,45.03
2018-12-22T01:40:05.174Z,45.40
2018-12-22T01:42:32.609Z,45.10
2018-12-22T01:45:00.022Z,45.20
2018-12-22T01:47:27.425Z,45.12
2018-12-22T01:49:55.857Z,45.10
2018-12-22T01:52:23.287Z,45.22
2018-12-22T01:54:50.718Z,45.33
2018-12-22T01:57:18.240Z,44.69
2018-12-22T01:59:45.686Z,45.45
2018-12-22T02:02:13.141Z,45.17
2018-12-22T02:04:40.569Z,44.85
2018-12-22T02:07:08.057Z,45.22
2018-12-22T02:09:35.501Z,44.92
2018-12-22T02:12:02.958Z,44.93
2018-12-22T02:14:40.522Z,45.29
2018-12-22T02:17:07.954Z,44.80
2018-12-22T02:19:35.406Z,44.69
2018-12-22T02:22:02.826Z,45.44
2018-12-22T02:24:30.266Z,44.83
2018-12-22T02:26:57.677Z,45.04
2018-12-22T02:29:25.354Z,45.30
2018-12-22T02:31:52.876Z,45.29
2018-12-22T02:34:20.296Z,45.31
2018-12-22T02:36:47.740Z,44.95
2018-12-22T02:39:15.138Z,44.60
2018-12-22T02:41:42.564Z,45.42
2018-12-22T02:44:10.052Z,45.05
2018-12-22T02:46:37.463Z,45.24
2018-12-22T02:49:04.909Z,45.19
2018-12-22T02:51:32.305Z,45.12
2018-12-22T02:53:59.726Z,44.61
2018-12-22T02:56:27.136Z,45.02
2018-12-22T02:59:06.281Z,44.65
2018-12-22T03:01:31.742Z,45.19
2018-12-22T03:03:59.182Z,45.03
2018-12-22T03:06:26.629Z,45.14
2018-12-22T03:08:54.088Z,44.66
2018-12-22T03:11:21.634Z,45.00
2018-12-22T03:13:49.115Z,45.13
2018-12-22T03:16:16.545Z,45.24
2018-12-22T03:18:45.683Z,44.87
2018-12-22T03:21:13.305Z,46.20
2018-12-22T03:23:40.712Z,44.90
2018-12-22T03:26:08.145Z,45.33
2018-12-22T03:28:35.694Z,45.11
2018-12-22T03:31:04.160Z,45.08
2018-12-22T03:33:31.634Z,44.59
2018-12-22T03:35:59.043Z,44.69
2018-12-22T03:38:26.490Z,45.02
2018-12-22T03:41:00.877Z,44.96
2018-12-22T03:43:28.358Z,45.02
2018-12-22T03:45:55.829Z,45.05
2018-12-22T03:48:23.274Z,44.52
2018-12-22T03:50:50.715Z,44.63
2018-12-22T03:53:18.174Z,44.82
2018-12-22T03:55:45.590Z,45.00
2018-12-22T03:58:13.042Z,44.94
2018-12-22T04:00:40.570Z,44.58
2018-12-22T04:03:08.089Z,44.50
2018-12-22T04:05:35.520Z,44.52
2018-12-22T04:08:02.935Z,44.87
2018-12-22T04:13:04.363Z,44.49
2018-12-22T04:15:31.868Z,44.92
2018-12-22T04:17:59.270Z,44.51
2018-12-22T04:20:26.734Z,44.52
2018-12-22T04:22:54.248Z,44.56
2018-12-22T04:25:28.552Z,44.61
2018-12-22T04:27:56.007Z,44.94
2018-12-22T04:30:23.847Z,44.77
2018-12-22T04:32:51.330Z,44.71
2018-12-22T04:35:18.794Z,44.94
2018-12-22T04:37:46.297Z,44.65
2018-12-22T04:40:13.740Z,44.79
2018-12-22T04:42:41.211Z,44.72
2018-12-22T04:45:08.660Z,44.96
2018-12-22T04:47:36.136Z,44.51
2018-12-22T04:50:03.626Z,44.59
2018-12-22T04:52:31.264Z,45.01
2018-12-22T04:54:58.722Z,45.06
2018-12-22T04:57:26.165Z,44.86
2018-12-22T04:59:53.864Z,44.40
2018-12-22T05:02:21.302Z,45.12
2018-12-22T05:04:48.770Z,44.53
2018-12-22T05:07:16.247Z,44.62
2018-12-22T05:09:43.776Z,44.70
2018-12-22T05:12:16.298Z,45.96
2018-12-22T05:14:43.848Z,45.36
2018-12-22T05:17:11.285Z,44.69
2018-12-22T05:19:38.766Z,45.02
2018-12-22T05:22:06.523Z,45.04
2018-12-22T05:24:34.092Z,44.52
2018-12-22T05:27:01.558Z,45.07
2018-12-22T05:29:28.994Z,45.12
2018-12-22T05:31:56.405Z,44.85
2018-12-22T05:34:23.891Z,44.57
2018-12-22T05:36:51.342Z,45.19
2018-12-22T05:39:18.874Z,44.74
2018-12-22T05:41:46.288Z,45.16
2018-12-22T05:44:13.711Z,44.97
2018-12-22T05:46:41.169Z,44.54
2018-12-22T05:49:08.650Z,44.76
2018-12-22T05:51:36.122Z,45.12
2018-12-22T05:54:06.173Z,44.64
2018-12-22T05:56:35.169Z,44.56
2018-12-22T05:59:02.650Z,44.26
2018-12-22T06:01:30.099Z,44.27
2018-12-22T06:03:57.530Z,44.59
2018-12-22T06:06:24.983Z,44.80
2018-12-22T06:08:52.395Z,44.13
2018-12-22T06:11:20.074Z,44.12
2018-12-22T06:13:47.510Z,44.68
2018-12-22T06:16:15.050Z,44.27
2018-12-22T06:18:42.497Z,44.41
2018-12-22T06:21:10.110Z,44.08
2018-12-22T06:23:37.651Z,44.20
2018-12-22T06:26:05.106Z,44.22
2018-12-22T06:28:32.687Z,44.13
2018-12-22T06:31:00.111Z,44.04
2018-12-22T06:33:27.518Z,44.47
2018-12-22T06:35:55.051Z,44.93
2018-12-22T06:38:22.593Z,45.12
2018-12-22T06:40:56.631Z,44.47
2018-12-22T06:43:24.526Z,44.59
2018-12-22T06:45:51.968Z,44.65
2018-12-22T06:48:19.392Z,44.33
2018-12-22T06:50:46.830Z,44.69
2018-12-22T06:53:14.250Z,45.90
2018-12-22T06:55:41.714Z,45.54
2018-12-22T06:58:09.143Z,45.78
2018-12-22T07:00:36.699Z,46.17
2018-12-22T07:03:04.197Z,45.83
2018-12-22T07:05:31.835Z,46.22
2018-12-22T07:07:59.330Z,46.38
2018-12-22T07:10:27.883Z,46.35
2018-12-22T07:12:55.446Z,46.71
2018-12-22T07:15:22.895Z,47.26
2018-12-22T07:17:50.369Z,47.62
2018-12-22T07:20:19.605Z,47.23
2018-12-22T07:22:56.552Z,47.92
2018-12-22T07:25:24.943Z,48.15
2018-12-22T07:27:54.662Z,47.77
2018-12-22T07:30:26.345Z,48.17
2018-12-22T07:32:57.225Z,48.06
2018-12-22T07:35:23.791Z,47.94
2018-12-22T07:37:51.299Z,48.53
2018-12-22T07:40:18.777Z,48.16
2018-12-22T07:42:46.244Z,48.77
2018-12-22T07:45:13.679Z,48.11
2018-12-22T07:47:41.120Z,47.49
2018-12-22T07:50:08.772Z,47.86
2018-12-22T07:52:36.270Z,47.20
2018-12-22T07:55:03.716Z,47.17
2018-12-22T07:57:31.167Z,46.30
2018-12-22T08:02:33.246Z,46.61
2018-12-22T08:05:00.674Z,46.72
2018-12-22T08:07:29.288Z,47.51
2018-12-22T08:09:56.706Z,48.30
2018-12-22T08:12:24.193Z,48.21
2018-12-22T08:14:51.690Z,48.20
2018-12-22T08:17:19.558Z,46.54
2018-12-22T08:19:47.002Z,45.88
2018-12-22T08:22:14.401Z,45.96
2018-12-22T08:24:41.877Z,45.76
2018-12-22T08:27:09.276Z,45.50
2018-12-22T08:29:36.706Z,45.61
2018-12-22T08:32:04.122Z,45.42
2018-12-22T08:34:31.511Z,45.30
2018-12-22T08:36:58.928Z,45.45
2018-12-22T08:39:26.335Z,45.68
2018-12-22T08:41:53.746Z,45.31
2018-12-22T08:44:21.142Z,45.57
2018-12-22T08:46:50.610Z,45.56
2018-12-22T08:49:18.107Z,45.04
2018-12-22T08:51:45.604Z,45.17
2018-12-22T08:54:13.010Z,45.34
2018-12-22T08:56:40.485Z,44.76
2018-12-22T08:59:35.043Z,45.23
2018-12-22T09:02:06.583Z,45.31
2018-12-22T09:04:48.006Z,45.12
2018-12-22T09:07:15.446Z,45.22
2018-12-22T09:09:43.718Z,44.76
2018-12-22T09:12:11.122Z,44.79
2018-12-22T09:14:38.559Z,45.07
2018-12-22T09:17:06.011Z,45.06
2018-12-22T09:19:38.474Z,44.69
2018-12-22T09:22:05.967Z,44.69
2018-12-22T09:24:33.403Z,45.03
2018-12-22T09:27:00.935Z,44.83
2018-12-22T09:29:28.334Z,45.28
2018-12-22T09:34:39.567Z,44.99
2018-12-22T09:39:52.536Z,44.97
2018-12-22T09:45:04.094Z,44.62
2018-12-22T09:47:31.565Z,45.05
2018-12-22T09:49:59.026Z,44.46
2018-12-22T09:52:26.434Z,45.08
2018-12-22T09:54:53.826Z,44.78
2018-12-22T09:57:21.227Z,44.55
2018-12-22T09:59:50.696Z,44.61
2018-12-22T10:02:19.345Z,44.70
2018-12-22T10:04:47.547Z,44.32
2018-12-22T10:07:14.982Z,44.79
2018-12-22T10:09:42.393Z,44.41
2018-12-22T10:12:09.790Z,44.64
2018-12-22T10:14:37.263Z,44.58
2018-12-22T10:17:05.006Z,44.34
2018-12-22T10:19:32.660Z,44.50
2018-12-22T10:22:00.121Z,44.75
2018-12-22T10:24:27.518Z,44.83
2018-12-22T10:26:54.919Z,44.69
2018-12-22T10:29:22.406Z,44.01
2018-12-22T10:31:49.839Z,44.11
2018-12-22T10:34:17.262Z,44.71
2018-12-22T10:36:44.678Z,44.51
2018-12-22T10:39:12.415Z,44.38
2018-12-22T10:41:40.177Z,44.18
2018-12-22T10:44:07.574Z,44.47
2018-12-22T10:46:36.051Z,44.27
2018-12-22T10:49:04.286Z,44.83
2018-12-22T10:51:31.826Z,44.37
2018-12-22T10:54:00.388Z,44.35
2018-12-22T10:56:27.781Z,44.46
2018-12-22T10:58:55.414Z,44.73
2018-12-22T11:01:26.693Z,44.71
2018-12-22T11:03:52.549Z,44.85
2018-12-22T11:06:19.954Z,44.40
2018-12-22T11:08:47.350Z,44.21
2018-12-22T11:11:14.878Z,44.23
2018-12-22T11:13:42.267Z,44.57
2018-12-22T11:16:09.866Z,44.48
2018-12-22T11:18:37.378Z,44.51
2018-12-22T11:21:04.814Z,44.42
2018-12-22T11:23:32.370Z,44.67
2018-12-22T11:25:59.930Z,44.48
2018-12-22T11:28:27.314Z,44.07
2018-12-22T11:30:59.801Z,44.12
2018-12-22T11:33:27.266Z,44.41
2018-12-22T11:35:54.746Z,44.60
2018-12-22T11:38:22.166Z,44.24
2018-12-22T11:40:50.747Z,44.24
2018-12-22T11:43:18.254Z,44.45
2018-12-22T11:45:45.785Z,44.70
2018-12-22T11:50:55.018Z,44.45
2018-12-22T11:53:22.488Z,44.41
2018-12-22T11:55:50.017Z,44.47
2018-12-22T11:58:17.639Z,44.07
2018-12-22T12:00:45.263Z,44.40
2018-12-22T12:03:12.750Z,43.93
2018-12-22T12:05:40.421Z,43.93
2018-12-22T12:08:08.040Z,44.43
2018-12-22T12:10:35.500Z,44.25
2018-12-22T12:13:02.915Z,44.35
2018-12-22T12:15:33.861Z,44.47
2018-12-22T12:20:08.118Z,44.89
2018-12-22T12:22:35.565Z,44.50
2018-12-22T12:25:02.995Z,44.71
2018-12-22T12:27:30.470Z,44.58
2018-12-22T12:29:57.898Z,44.56
2018-12-22T12:32:25.304Z,44.23
2018-12-22T12:34:52.808Z,44.03
2018-12-22T12:37:20.283Z,44.47
2018-12-22T12:39:47.670Z,44.36
2018-12-22T12:42:15.214Z,43.99
2018-12-22T12:44:42.980Z,44.01
2018-12-22T12:47:10.490Z,43.96
2018-12-22T12:49:37.912Z,43.99
2018-12-22T12:52:05.339Z,44.27
2018-12-22T12:54:32.832Z,44.01
2018-12-22T12:57:00.263Z,43.92
2018-12-22T12:59:29.774Z,43.89
2018-12-22T13:02:01.312Z,44.11
2018-12-22T13:04:26.883Z,44.17
2018-12-22T13:06:54.551Z,43.73
2018-12-22T13:09:22.270Z,43.98
2018-12-22T13:11:50.808Z,44.19
2018-12-22T13:14:19.772Z,43.99
2018-12-22T13:16:47.292Z,44.44
2018-12-22T13:19:14.682Z,44.28
2018-12-22T13:21:43.294Z,44.58
2018-12-22T13:24:10.713Z,44.99
2018-12-22T13:26:38.138Z,44.64
2018-12-22T13:29:05.570Z,44.63
2018-12-22T13:31:32.997Z,45.17
2018-12-22T13:34:00.412Z,44.86
2018-12-22T13:36:34.442Z,45.05
2018-12-22T13:39:00.158Z,44.97
2018-12-22T13:41:30.826Z,44.94
2018-12-22T13:43:58.238Z,45.05
2018-12-22T13:46:25.659Z,45.50
2018-12-22T13:48:53.470Z,45.20
2018-12-22T13:51:22.441Z,45.05
2018-12-22T13:53:50.017Z,45.61
2018-12-22T13:56:17.443Z,45.31
2018-12-22T13:58:46.107Z,45.40
2018-12-22T14:01:14.878Z,45.56
2018-12-22T14:03:43.362Z,45.45
2018-12-22T14:06:14.267Z,45.61
2018-12-22T14:08:41.715Z,45.26
2018-12-22T14:11:09.173Z,45.49
2018-12-22T14:13:36.673Z,45.85
2018-12-22T14:16:10.410Z,45.27
2018-12-22T14:18:41.166Z,45.42
2018-12-22T14:21:09.682Z,45.38
2018-12-22T14:23:46.534Z,45.45
2018-12-22T14:26:13.947Z,45.68
2018-12-22T14:28:41.418Z,45.56
2018-12-22T14:31:08.941Z,45.23
2018-12-22T14:33:36.383Z,45.59
2018-12-22T14:36:05.695Z,45.74
2018-12-22T14:38:33.151Z,45.44
2018-12-22T14:41:00.561Z,45.52
2018-12-22T14:43:28.007Z,45.54
2018-12-22T14:45:55.438Z,45.86
2018-12-22T14:48:22.845Z,45.67
2018-12-22T14:50:50.318Z,45.75
2018-12-22T14:53:17.729Z,45.89
2018-12-22T14:55:45.148Z,46.02
2018-12-22T14:58:17.401Z,45.67
2018-12-22T15:00:44.838Z,45.77
2018-12-22T15:03:12.238Z,45.99
2018-12-22T15:05:39.651Z,45.25
2018-12-22T15:08:07.065Z,46.14
2018-12-22T15:10:34.479Z,45.25
2018-12-22T15:13:01.874Z,45.64
2018-12-22T15:15:29.274Z,45.35
2018-12-22T15:17:56.726Z,45.50
2018-12-22T15:20:24.849Z,45.79
2018-12-22T15:22:52.254Z,45.52
2018-12-22T15:25:19.818Z,45.57
2018-12-22T15:27:47.219Z,45.57
2018-12-22T15:30:14.645Z,45.49
2018-12-22T15:32:46.243Z,45.42
2018-12-22T15:35:11.489Z,45.53
2018-12-22T15:37:38.914Z,45.11
2018-12-22T15:40:06.519Z,45.09
2018-12-22T15:42:33.914Z,45.10
2018-12-22T15:45:01.713Z,45.03
2018-12-22T15:47:29.364Z,45.59
2018-12-22T15:49:56.785Z,45.57
2018-12-22T15:52:24.167Z,45.53
2018-12-22T15:54:51.671Z,45.50
2018-12-22T15:57:19.085Z,45.70
2018-12-22T15:59:46.581Z,45.49
2018-12-22T16:02:14.002Z,45.24
2018-12-22T16:04:41.718Z,45.37
2018-12-22T16:07:09.163Z,45.34
2018-12-22T16:09:36.617Z,45.82
2018-12-22T16:12:04.098Z,45.95
2018-12-22T16:14:31.520Z,45.46
2018-12-22T16:16:58.981Z,45.83
2018-12-22T16:19:26.563Z,45.22
2018-12-22T16:21:54.082Z,45.61
2018-12-22T16:24:21.502Z,45.47
2018-12-22T16:26:51.138Z,45.43
2018-12-22T16:29:21.555Z,45.55
2018-12-22T16:31:50.446Z,45.50
2018-12-22T16:34:19.918Z,45.43
2018-12-22T16:36:47.321Z,45.17
2018-12-22T16:39:14.834Z,45.55
2018-12-22T16:41:42.327Z,45.24
2018-12-22T16:44:11.586Z,45.63
2018-12-22T16:46:38.998Z,45.51
2018-12-22T16:49:08.478Z,45.64
2018-12-22T16:51:36.046Z,45.53
2018-12-22T16:54:03.512Z,45.24
2018-12-22T16:56:31.016Z,45.18
2018-12-22T16:58:59.412Z,45.72
2018-12-22T17:02:32.701Z,45.57
2018-12-22T17:05:00.239Z,45.73
2018-12-22T17:07:27.710Z,45.65
2018-12-22T17:09:55.181Z,45.79
2018-12-22T17:12:22.625Z,45.68
2018-12-22T17:14:50.730Z,45.55
2018-12-22T17:17:18.129Z,45.43
2018-12-22T17:19:45.599Z,45.04
2018-12-22T17:22:15.330Z,44.94
2018-12-22T17:24:45.053Z,45.36
2018-12-22T17:27:12.439Z,45.26
2018-12-22T17:29:39.958Z,45.16
2018-12-22T17:32:07.388Z,44.68
2018-12-22T17:34:34.842Z,45.31
2018-12-22T17:37:02.245Z,45.45
2018-12-22T17:39:36.613Z,45.20
2018-12-22T17:41:59.071Z,45.34
2018-12-22T17:44:26.461Z,45.12
2018-12-22T17:46:53.866Z,45.37
2018-12-22T17:49:21.320Z,44.98
2018-12-22T17:51:48.726Z,45.00
2018-12-22T17:54:16.130Z,44.71
2018-12-22T17:56:43.586Z,44.89
2018-12-22T17:59:11.073Z,44.66
2018-12-22T18:01:38.466Z,45.20
2018-12-22T18:04:07.058Z,44.70
2018-12-22T18:06:34.521Z,45.19
2018-12-22T18:09:02.009Z,45.03
2018-12-22T18:11:29.406Z,44.86
2018-12-22T18:13:56.805Z,44.87
2018-12-22T18:16:24.202Z,45.13
2018-12-22T18:18:51.702Z,44.90
2018-12-22T18:21:19.099Z,45.03
2018-12-22T18:23:46.608Z,45.11
2018-12-22T18:26:14.042Z,45.34
2018-12-22T18:28:41.469Z,45.29
2018-12-22T18:31:08.935Z,45.23
2018-12-22T18:33:36.329Z,44.75
2018-12-22T18:36:03.781Z,44.72
2018-12-22T18:38:31.154Z,45.23
2018-12-22T18:40:58.602Z,45.29
2018-12-22T18:43:27.440Z,44.99
2018-12-22T18:45:54.835Z,45.45
2018-12-22T18:48:28.726Z,44.80
2018-12-22T18:50:56.178Z,44.85
2018-12-22T18:53:23.586Z,44.91
2018-12-22T18:55:51.034Z,45.20
2018-12-22T19:01:06.888Z,45.22
2018-12-22T19:09:02.893Z,45.09
2018-12-22T19:11:30.327Z,45.35
2018-12-22T19:13:57.729Z,44.72
2018-12-22T19:16:25.137Z,45.08
2018-12-22T19:18:52.556Z,45.25
2018-12-22T19:21:20.112Z,45.28
2018-12-22T19:23:47.523Z,45.15
2018-12-22T19:26:14.953Z,44.84
2018-12-22T19:28:42.442Z,45.02
2018-12-22T19:31:09.896Z,45.44
2018-12-22T19:33:37.330Z,45.47
2018-12-22T19:36:04.736Z,44.83
2018-12-22T19:38:32.233Z,45.38
2018-12-22T19:40:59.618Z,44.67
2018-12-22T19:43:27.701Z,45.45
2018-12-22T19:45:56.023Z,45.05
2018-12-22T19:48:23.518Z,45.32
2018-12-22T19:50:50.913Z,45.29
2018-12-22T19:53:18.310Z,45.13
2018-12-22T19:55:45.714Z,45.38
2018-12-22T19:58:13.152Z,45.53
2018-12-22T20:00:40.585Z,45.20
2018-12-22T20:03:08.083Z,45.08
2018-12-22T20:05:35.602Z,45.56
2018-12-22T20:08:02.990Z,45.40
2018-12-22T20:10:30.549Z,45.66
2018-12-22T20:12:58.010Z,45.50
2018-12-22T20:15:25.402Z,45.18
2018-12-22T20:17:52.832Z,45.50
2018-12-22T20:20:20.403Z,45.23
2018-12-22T20:22:47.838Z,45.26
2018-12-22T20:25:15.234Z,45.39
2018-12-22T20:27:42.633Z,45.20
2018-12-22T20:30:10.074Z,45.48
2018-12-22T20:32:37.551Z,45.45
2018-12-22T20:35:04.994Z,45.32
2018-12-22T20:37:32.635Z,45.23
2018-12-22T20:40:00.036Z,44.62
2018-12-22T20:42:27.570Z,45.35
2018-12-22T20:44:55.046Z,45.34
2018-12-22T20:47:22.491Z,44.42
2018-12-22T20:49:49.898Z,44.50
2018-12-22T20:52:17.294Z,44.62
2018-12-22T20:54:44.786Z,44.61
2018-12-22T20:57:12.207Z,44.43
2018-12-22T20:59:39.661Z,43.81
2018-12-22T21:02:07.099Z,43.75
2018-12-22T21:04:34.529Z,43.68
2018-12-22T21:07:02.032Z,43.66
2018-12-22T21:09:29.490Z,43.91
2018-12-22T21:11:57.021Z,43.46
2018-12-22T21:14:24.511Z,43.42
2018-12-22T21:16:51.949Z,43.85
2018-12-22T21:19:19.489Z,43.60
2018-12-22T21:21:46.935Z,44.10
2018-12-22T21:24:16.983Z,43.89
2018-12-22T21:26:44.464Z,43.92
2018-12-22T21:29:11.898Z,44.81
2018-12-22T21:31:39.334Z,44.96
2018-12-22T21:34:07.858Z,44.83
2018-12-22T21:36:35.241Z,44.52
2018-12-22T21:39:03.122Z,44.53
2018-12-22T21:41:30.667Z,44.89
2018-12-22T21:43:58.098Z,45.22
2018-12-22T21:46:25.499Z,45.60
2018-12-22T21:48:52.944Z,46.00
2018-12-22T21:51:20.437Z,45.79
2018-12-22T21:53:47.830Z,45.85
2018-12-22T21:56:15.244Z,46.02
2018-12-22T21:58:43.662Z,46.20
2018-12-22T22:01:11.120Z,46.74
2018-12-22T22:03:38.538Z,46.31
2018-12-22T22:06:05.962Z,46.99
2018-12-22T22:08:33.402Z,46.74
2018-12-22T22:11:00.809Z,47.07
2018-12-22T22:13:28.285Z,46.66
2018-12-22T22:15:55.724Z,46.72
2018-12-22T22:18:23.225Z,46.89
2018-12-22T22:20:50.774Z,47.44
2018-12-22T22:23:19.108Z,47.18
2018-12-22T22:25:46.849Z,47.26
2018-12-22T22:28:14.279Z,47.21
2018-12-22T22:30:42.703Z,47.08
2018-12-22T22:33:10.123Z,46.88
2018-12-22T22:35:37.570Z,47.21
2018-12-22T22:38:05.027Z,46.60
2018-12-22T22:40:32.432Z,46.64
2018-12-22T22:43:00.331Z,47.08
2018-12-22T22:45:27.845Z,46.69
2018-12-22T22:47:55.249Z,47.24
2018-12-22T22:50:22.645Z,46.70
2018-12-22T22:52:50.056Z,47.34
2018-12-22T22:55:17.455Z,46.94
2018-12-22T22:57:44.898Z,46.77
2018-12-22T23:00:20.452Z,46.99
2018-12-22T23:02:47.938Z,47.38
2018-12-22T23:05:15.443Z,46.66
2018-12-22T23:07:42.846Z,47.01
2018-12-22T23:10:11.284Z,47.12
2018-12-22T23:12:38.754Z,46.58
2018-12-22T23:15:06.234Z,46.90
2018-12-22T23:17:33.689Z,46.67
2018-12-22T23:20:01.131Z,46.62
2018-12-22T23:22:28.550Z,46.52
2018-12-22T23:24:56.041Z,46.70
2018-12-22T23:27:23.498Z,46.56
2018-12-22T23:29:50.933Z,46.81
2018-12-22T23:32:18.370Z,47.00
2018-12-22T23:34:45.814Z,46.99
2018-12-22T23:37:13.217Z,46.51
2018-12-22T23:39:40.735Z,47.01
2018-12-22T23:42:08.203Z,46.53
2018-12-22T23:44:35.819Z,46.91
2018-12-22T23:47:03.358Z,46.93
2018-12-22T23:49:30.765Z,46.78
2018-12-22T23:51:58.285Z,46.99
2018-12-22T23:54:25.812Z,46.50
2018-12-22T23:56:53.327Z,46.90
